Time;durP1;ratioP1;P1;durP2;ratioP2;P2;SDS_P1;SDS_P2;PMS_P1;PMS_P2;Temp;Humidity;BMP_temperature;BMP_pressure;BME280_temperature;BME280_humidity;BME280_pressure;Samples;Min_cycle;Max_cycle;Signal;HPM_P1;HPM_P2
2020/12/26 00:01:51;;;;;;;9.55;7.25;;;0.70;92.80;;;;;;5003079;28;20320;-81
2020/12/26 00:04:18;;;;;;;12.57;7.95;;;0.70;93.30;;;;;;5005002;28;20209;-80
2020/12/26 00:06:49;;;;;;;13.43;8.30;;;0.80;93.60;;;;;;5003905;28;20200;-81
2020/12/26 00:09:16;;;;;;;11.55;7.63;;;0.70;93.70;;;;;;5003160;28;20258;-81
2020/12/26 00:11:42;;;;;;;12.80;7.45;;;0.70;94.00;;;;;;5005115;28;20232;-81
2020/12/26 00:14:09;;;;;;;9.52;7.45;;;0.70;94.20;;;;;;5004946;28;20216;-81
2020/12/26 00:16:35;;;;;;;11.80;8.20;;;0.70;94.50;;;;;;5008977;28;20211;-82
2020/12/26 00:19:01;;;;;;;10.15;7.22;;;0.60;94.70;;;;;;5016505;28;20216;-81
2020/12/26 00:21:28;;;;;;;10.85;8.20;;;0.60;95.00;;;;;;5016272;28;20263;-81
2020/12/26 00:23:55;;;;;;;11.02;8.25;;;0.70;95.30;;;;;;5014235;28;20240;-81
2020/12/26 00:26:21;;;;;;;11.70;8.20;;;0.80;95.40;;;;;;5004335;28;20239;-81
2020/12/26 00:28:48;;;;;;;12.00;8.32;;;0.80;95.90;;;;;;5003721;28;20263;-82
2020/12/26 00:31:16;;;;;;;13.07;9.82;;;1.00;96.40;;;;;;5003233;28;20291;-81
2020/12/26 00:33:43;;;;;;;20.95;9.52;;;1.10;96.60;;;;;;5003059;28;20219;-81
2020/12/26 00:36:10;;;;;;;11.15;9.00;;;1.10;96.70;;;;;;5003432;28;20239;-82
2020/12/26 00:38:36;;;;;;;14.38;9.20;;;1.30;96.90;;;;;;5006760;28;20208;-82
2020/12/26 00:41:03;;;;;;;15.27;9.80;;;1.30;96.60;;;;;;5003950;28;20216;-80
2020/12/26 00:43:30;;;;;;;14.98;9.50;;;1.30;96.40;;;;;;5003283;28;20235;-81
2020/12/26 00:45:56;;;;;;;14.02;9.32;;;1.50;96.50;;;;;;5005089;28;20377;-81
2020/12/26 00:48:23;;;;;;;17.70;9.82;;;1.50;96.00;;;;;;5009073;28;20224;-80
2020/12/26 00:50:49;;;;;;;11.80;9.27;;;1.60;95.60;;;;;;5009544;28;20215;-81
2020/12/26 00:53:15;;;;;;;16.88;9.68;;;1.60;95.60;;;;;;5008831;28;20256;-80
2020/12/26 00:55:42;;;;;;;11.75;9.15;;;1.60;95.40;;;;;;5009803;28;20219;-81
2020/12/26 00:58:09;;;;;;;15.07;9.50;;;1.70;95.00;;;;;;5014025;28;20251;-80
2020/12/26 01:00:36;;;;;;;13.43;8.95;;;1.70;94.50;;;;;;5015958;28;20247;-81
2020/12/26 01:03:02;;;;;;;12.02;9.05;;;1.80;94.20;;;;;;5014179;28;20232;-81
2020/12/26 01:05:29;;;;;;;11.48;9.25;;;1.80;94.00;;;;;;5013983;28;20236;-80
2020/12/26 01:07:56;;;;;;;14.10;9.60;;;1.80;93.50;;;;;;5013046;28;20209;-80
2020/12/26 01:10:22;;;;;;;13.60;10.48;;;1.80;93.20;;;;;;5015406;28;20215;-80
2020/12/26 01:12:49;;;;;;;12.32;9.32;;;1.80;93.10;;;;;;5014404;28;20238;-81
2020/12/26 01:15:17;;;;;;;13.18;9.52;;;1.80;92.90;;;;;;5014979;28;20227;-80
2020/12/26 01:17:43;;;;;;;11.82;9.05;;;1.90;92.50;;;;;;5014279;28;20236;-80
2020/12/26 01:20:11;;;;;;;15.32;9.85;;;1.80;92.20;;;;;;5015497;28;20225;-81
2020/12/26 01:22:37;;;;;;;16.13;10.30;;;1.80;92.20;;;;;;5012947;28;20243;-81
2020/12/26 01:25:05;;;;;;;13.68;10.25;;;1.80;92.20;;;;;;5010217;28;20232;-82
2020/12/26 01:27:31;;;;;;;16.52;10.35;;;1.80;92.20;;;;;;5012505;28;20201;-81
2020/12/26 01:29:58;;;;;;;14.40;10.32;;;1.80;92.20;;;;;;5016234;28;20308;-81
2020/12/26 01:32:27;;;;;;;12.80;9.35;;;1.80;92.20;;;;;;5018985;28;20236;-81
2020/12/26 01:34:54;;;;;;;15.43;10.07;;;1.80;92.10;;;;;;5019190;28;20200;-81
2020/12/26 01:37:20;;;;;;;11.98;9.00;;;1.70;92.10;;;;;;5014748;28;20241;-81
2020/12/26 01:39:47;;;;;;;15.85;10.07;;;1.60;92.10;;;;;;5015573;28;20209;-81
2020/12/26 01:42:13;;;;;;;12.82;9.10;;;1.50;92.00;;;;;;5018573;28;20291;-81
2020/12/26 01:44:40;;;;;;;11.95;8.93;;;1.50;92.00;;;;;;5018730;28;20208;-81
2020/12/26 01:47:07;;;;;;;12.25;9.55;;;1.50;92.00;;;;;;5018113;28;20206;-81
2020/12/26 01:49:35;;;;;;;11.38;8.75;;;1.50;92.40;;;;;;5016111;28;20236;-81
2020/12/26 01:52:03;;;;;;;12.13;9.00;;;1.50;92.60;;;;;;5013555;28;20275;-81
2020/12/26 01:54:30;;;;;;;12.23;8.88;;;1.60;92.70;;;;;;5013379;28;20209;-80
2020/12/26 01:56:57;;;;;;;11.73;9.13;;;1.60;92.40;;;;;;5012036;28;20249;-81
2020/12/26 01:59:24;;;;;;;13.32;9.85;;;1.70;92.50;;;;;;5011560;28;20658;-81
2020/12/26 02:01:51;;;;;;;12.18;9.57;;;1.60;92.10;;;;;;5014101;28;20209;-81
2020/12/26 02:04:18;;;;;;;15.88;10.50;;;1.60;92.20;;;;;;5015424;28;20302;-81
2020/12/26 02:06:49;;;;;;;13.35;9.30;;;1.50;92.30;;;;;;5015157;28;20224;-81
2020/12/26 02:09:16;;;;;;;12.48;9.95;;;1.60;92.80;;;;;;5018599;28;20213;-80
2020/12/26 02:11:43;;;;;;;12.25;9.93;;;1.70;92.70;;;;;;5017919;28;20236;-82
2020/12/26 02:14:09;;;;;;;12.82;10.45;;;1.70;92.50;;;;;;5017830;28;20225;-81
2020/12/26 02:16:46;;;;;;;16.85;9.70;;;1.70;92.60;;;;;;5016501;28;20247;-82
2020/12/26 02:19:13;;;;;;;14.80;10.85;;;1.80;92.30;;;;;;5017494;28;20263;-81
2020/12/26 02:21:40;;;;;;;14.73;10.38;;;1.70;92.10;;;;;;5012298;28;20232;-82
2020/12/26 02:24:07;;;;;;;15.75;11.25;;;1.60;92.10;;;;;;5010393;28;20263;-82
2020/12/26 02:26:34;;;;;;;14.55;10.60;;;1.60;92.20;;;;;;5009360;28;20204;-82
2020/12/26 02:29:00;;;;;;;13.38;9.70;;;1.70;92.40;;;;;;5003943;28;20475;-82
2020/12/26 02:31:27;;;;;;;20.48;11.35;;;1.70;92.30;;;;;;5009023;28;20248;-81
2020/12/26 02:33:53;;;;;;;15.18;10.73;;;1.70;92.30;;;;;;5010688;28;20208;-81
2020/12/26 02:36:20;;;;;;;14.68;11.10;;;1.70;92.10;;;;;;5013006;28;20236;-82
2020/12/26 02:38:47;;;;;;;16.00;11.30;;;1.70;92.10;;;;;;5010296;28;20248;-82
2020/12/26 02:41:14;;;;;;;17.27;12.57;;;1.70;92.10;;;;;;5011966;28;20226;-81
2020/12/26 02:43:40;;;;;;;15.88;10.63;;;1.80;92.20;;;;;;5011653;28;20212;-80
2020/12/26 02:46:07;;;;;;;15.98;11.32;;;1.80;92.20;;;;;;5003488;28;20279;-80
2020/12/26 02:48:33;;;;;;;14.57;10.80;;;1.80;92.20;;;;;;5002493;28;20300;-80
2020/12/26 02:51:00;;;;;;;15.18;11.35;;;1.80;91.80;;;;;;5003066;28;20208;-81
2020/12/26 02:53:27;;;;;;;15.07;10.25;;;1.80;91.90;;;;;;5002918;28;20229;-81
2020/12/26 02:55:53;;;;;;;15.77;11.13;;;1.80;91.70;;;;;;5002751;28;20213;-81
2020/12/26 02:58:20;;;;;;;15.23;11.93;;;1.80;91.60;;;;;;5002818;28;20293;-81
2020/12/26 03:00:49;;;;;;;16.20;10.93;;;1.70;91.20;;;;;;5003586;28;20222;-81
2020/12/26 03:03:15;;;;;;;17.80;10.68;;;1.70;91.40;;;;;;5002737;28;20228;-81
2020/12/26 03:05:41;;;;;;;13.60;10.45;;;1.70;91.80;;;;;;5002291;28;20228;-82
2020/12/26 03:08:08;;;;;;;13.52;10.18;;;1.70;92.10;;;;;;5003041;28;20335;-81
2020/12/26 03:10:34;;;;;;;17.10;10.20;;;1.80;92.20;;;;;;5013931;28;20189;-82
2020/12/26 03:13:01;;;;;;;16.25;11.30;;;1.70;91.80;;;;;;5017047;28;20282;-81
2020/12/26 03:15:28;;;;;;;16.45;11.25;;;1.80;92.20;;;;;;5017010;28;20227;-82
2020/12/26 03:17:54;;;;;;;14.02;10.68;;;1.80;91.60;;;;;;5016473;28;20242;-81
2020/12/26 03:20:21;;;;;;;16.25;11.27;;;1.80;91.70;;;;;;5017145;28;20227;-81
2020/12/26 03:22:47;;;;;;;17.23;11.10;;;1.80;91.30;;;;;;5017076;28;20243;-81
2020/12/26 03:25:13;;;;;;;20.70;11.68;;;1.70;91.00;;;;;;5017105;28;20216;-81
2020/12/26 03:27:40;;;;;;;17.23;11.57;;;1.70;91.30;;;;;;5015946;28;20218;-81
2020/12/26 03:30:07;;;;;;;15.52;10.77;;;1.70;91.00;;;;;;5015891;28;20212;-82
2020/12/26 03:32:34;;;;;;;16.83;11.38;;;1.70;91.30;;;;;;5017237;28;20263;-82
2020/12/26 03:35:00;;;;;;;14.25;11.00;;;1.70;90.90;;;;;;5013000;28;20266;-81
2020/12/26 03:37:27;;;;;;;19.95;11.90;;;1.60;91.00;;;;;;5010700;28;20324;-80
2020/12/26 03:39:53;;;;;;;20.58;11.43;;;1.60;91.50;;;;;;5008979;28;20209;-81
2020/12/26 03:42:20;;;;;;;17.95;12.05;;;1.70;92.10;;;;;;5007837;28;20225;-81
2020/12/26 03:44:46;;;;;;;14.05;10.63;;;1.80;91.90;;;;;;5003525;28;20491;-82
2020/12/26 03:47:12;;;;;;;17.58;10.85;;;1.80;91.80;;;;;;5001214;28;20204;-82
2020/12/26 03:49:40;;;;;;;20.38;11.70;;;1.80;91.90;;;;;;5002704;28;20222;-81
2020/12/26 03:52:06;;;;;;;14.75;11.88;;;1.80;91.50;;;;;;5003508;28;20237;-81
2020/12/26 03:54:33;;;;;;;17.35;12.15;;;1.80;91.40;;;;;;5003303;28;20214;-82
2020/12/26 03:56:59;;;;;;;15.98;12.05;;;1.70;91.30;;;;;;5006862;28;20227;-82
2020/12/26 03:59:26;;;;;;;18.73;12.05;;;1.60;91.20;;;;;;5011210;28;20212;-80
2020/12/26 04:01:52;;;;;;;20.35;12.00;;;1.50;91.40;;;;;;5013524;28;20220;-81
2020/12/26 04:04:19;;;;;;;20.75;12.20;;;1.40;91.80;;;;;;5007279;28;20208;-81
2020/12/26 04:06:46;;;;;;;18.80;11.70;;;1.40;92.00;;;;;;5004903;28;20205;-80
2020/12/26 04:09:13;;;;;;;15.35;11.82;;;1.40;92.20;;;;;;5001837;28;20476;-80
2020/12/26 04:11:40;;;;;;;20.60;11.68;;;1.40;92.50;;;;;;4999606;28;20325;-80
2020/12/26 04:14:06;;;;;;;15.60;12.02;;;1.40;92.90;;;;;;5000369;28;20218;-81
2020/12/26 04:16:33;;;;;;;19.35;12.68;;;1.30;93.10;;;;;;5000351;28;20259;-81
2020/12/26 04:18:59;;;;;;;17.67;12.25;;;1.40;93.50;;;;;;5001144;28;20687;-81
2020/12/26 04:21:27;;;;;;;14.98;11.02;;;1.30;93.50;;;;;;5000212;28;20315;-81
2020/12/26 04:23:54;;;;;;;18.38;12.57;;;1.30;94.00;;;;;;5001583;28;20219;-81
2020/12/26 04:26:21;;;;;;;17.45;12.38;;;1.40;94.50;;;;;;5011606;28;20303;-81
2020/12/26 04:28:48;;;;;;;20.63;11.63;;;1.40;94.50;;;;;;5007995;28;20697;-81
2020/12/26 04:31:14;;;;;;;16.42;11.80;;;1.50;94.60;;;;;;5001867;28;20259;-82
2020/12/26 04:33:41;;;;;;;16.80;11.70;;;1.50;94.40;;;;;;5003022;28;20298;-81
2020/12/26 04:36:07;;;;;;;14.60;11.25;;;1.40;94.20;;;;;;5001414;28;20236;-82
2020/12/26 04:38:34;;;;;;;18.55;11.48;;;1.40;94.10;;;;;;5002028;28;20204;-82
2020/12/26 04:41:02;;;;;;;16.45;11.20;;;1.30;94.30;;;;;;5000796;28;20211;-82
2020/12/26 04:43:28;;;;;;;16.88;10.95;;;1.20;94.30;;;;;;5001341;28;20200;-82
2020/12/26 04:45:56;;;;;;;14.35;9.80;;;1.30;94.80;;;;;;5001980;28;20204;-84
2020/12/26 04:48:24;;;;;;;20.52;11.35;;;1.30;94.80;;;;;;5010179;28;20268;-83
2020/12/26 04:50:53;;;;;;;13.30;9.43;;;1.20;94.70;;;;;;5016016;28;20209;-82
2020/12/26 04:53:21;;;;;;;16.10;10.85;;;1.20;95.00;;;;;;5015624;28;20263;-83
2020/12/26 04:55:49;;;;;;;16.13;10.50;;;1.10;95.00;;;;;;5015573;28;20208;-82
2020/12/26 04:58:18;;;;;;;16.33;10.50;;;1.00;95.10;;;;;;5015557;28;20236;-82
2020/12/26 05:00:45;;;;;;;16.48;9.95;;;1.00;95.40;;;;;;5007281;28;20224;-82
2020/12/26 05:03:12;;;;;;;15.68;10.85;;;1.00;95.40;;;;;;5002446;28;20220;-82
2020/12/26 05:05:40;;;;;;;20.88;10.75;;;1.00;95.60;;;;;;5001129;28;20213;-81
2020/12/26 05:08:08;;;;;;;26.33;11.80;;;1.00;95.90;;;;;;5001653;28;20204;-81
2020/12/26 05:10:35;;;;;;;16.45;10.88;;;0.90;96.30;;;;;;5002723;28;20216;-82
2020/12/26 05:13:04;;;;;;;18.50;11.57;;;0.90;96.70;;;;;;5005785;28;20244;-81
2020/12/26 05:15:32;;;;;;;20.30;10.93;;;0.90;97.00;;;;;;5015464;28;20261;-82
2020/12/26 05:17:58;;;;;;;17.10;10.70;;;0.80;97.30;;;;;;5014089;28;20235;-82
2020/12/26 05:20:25;;;;;;;18.90;11.48;;;0.90;97.80;;;;;;5004252;28;20210;-82
2020/12/26 05:23:07;;;;;;;17.30;11.90;;;0.90;98.10;;;;;;4999052;28;20255;-81
2020/12/26 05:25:33;;;;;;;17.05;10.88;;;0.90;98.60;;;;;;5006167;28;20213;-81
2020/12/26 05:28:14;;;;;;;21.98;10.85;;;0.90;98.80;;;;;;5008129;28;20218;-81
2020/12/26 05:30:42;;;;;;;19.73;11.98;;;1.00;98.80;;;;;;5006741;28;20224;-81
2020/12/26 05:33:11;;;;;;;18.67;11.85;;;1.00;98.80;;;;;;5014306;28;20241;-82
2020/12/26 05:35:41;;;;;;;19.52;10.20;;;1.00;98.80;;;;;;5017873;28;20207;-81
2020/12/26 05:38:19;;;;;;;20.02;11.00;;;1.00;99.10;;;;;;5012276;28;20239;-82
2020/12/26 05:40:47;;;;;;;17.13;10.70;;;1.00;99.20;;;;;;5016349;28;20207;-82
2020/12/26 05:43:19;;;;;;;22.08;12.15;;;1.00;99.20;;;;;;5013198;28;20231;-82
2020/12/26 05:45:47;;;;;;;18.70;10.45;;;1.00;99.30;;;;;;5012063;28;20208;-81
2020/12/26 05:48:15;;;;;;;20.88;12.38;;;1.10;99.50;;;;;;5014567;28;20200;-82
2020/12/26 05:50:42;;;;;;;35.70;13.50;;;1.10;99.50;;;;;;5013493;28;20213;-84
2020/12/26 05:53:11;;;;;;;24.80;11.85;;;1.10;99.60;;;;;;5003033;28;20230;-82
2020/12/26 05:55:40;;;;;;;22.30;11.63;;;1.20;99.60;;;;;;5013657;28;20197;-82
2020/12/26 05:58:07;;;;;;;18.33;12.30;;;1.20;99.60;;;;;;5016124;28;20224;-82
2020/12/26 06:00:35;;;;;;;21.40;11.23;;;1.20;99.40;;;;;;5016509;28;20252;-81
2020/12/26 06:03:24;;;;;;;18.13;11.02;;;1.20;99.40;;;;;;5016632;28;20246;-82
2020/12/26 06:05:52;;;;;;;19.00;11.02;;;1.20;99.40;;;;;;5016600;28;20219;-82
2020/12/26 06:08:19;;;;;;;19.70;11.90;;;1.20;99.10;;;;;;5016799;28;20193;-83
2020/12/26 06:10:50;;;;;;;24.75;11.65;;;1.30;99.10;;;;;;5016994;28;20201;-82
2020/12/26 06:13:18;;;;;;;21.27;11.27;;;1.30;98.90;;;;;;5008947;28;20288;-81
2020/12/26 06:15:54;;;;;;;15.65;9.50;;;1.30;98.90;;;;;;5003409;28;20208;-83
2020/12/26 06:18:23;;;;;;;18.38;10.30;;;1.40;99.00;;;;;;5003420;28;20339;-82
2020/12/26 06:20:50;;;;;;;17.55;9.75;;;1.40;98.30;;;;;;5008090;28;20293;-81
2020/12/26 06:23:22;;;;;;;16.73;10.98;;;1.40;97.90;;;;;;5004161;28;20216;-82
2020/12/26 06:25:50;;;;;;;16.67;9.55;;;1.50;97.60;;;;;;5003762;28;20561;-81
2020/12/26 06:28:27;;;;;;;16.35;10.30;;;1.50;97.30;;;;;;5003467;28;20207;-80
2020/12/26 06:30:56;;;;;;;16.27;9.68;;;1.50;97.00;;;;;;5003124;28;20212;-82
2020/12/26 06:33:25;;;;;;;19.80;9.70;;;1.40;96.60;;;;;;5004373;28;20291;-81
2020/12/26 06:35:53;;;;;;;21.00;10.48;;;1.50;96.30;;;;;;5003725;28;20586;-82
2020/12/26 06:38:23;;;;;;;19.23;10.45;;;1.50;96.00;;;;;;5004518;28;20221;-80
2020/12/26 06:40:51;;;;;;;18.83;10.55;;;1.50;95.80;;;;;;5006898;28;20204;-81
2020/12/26 06:43:48;;;;;;;17.98;9.48;;;1.50;95.60;;;;;;5007175;28;20286;-81
2020/12/26 06:46:39;;;;;;;12.50;9.13;;;1.50;95.60;;;;;;5017732;28;20200;-82
2020/12/26 06:49:07;;;;;;;15.80;9.30;;;1.50;95.60;;;;;;5017960;28;20252;-82
2020/12/26 06:51:36;;;;;;;14.90;8.68;;;1.50;95.50;;;;;;5012699;28;20229;-81
2020/12/26 06:54:04;;;;;;;14.23;8.90;;;1.50;95.50;;;;;;5015097;28;20220;-81
2020/12/26 06:56:49;;;;;;;16.45;9.57;;;1.40;95.20;;;;;;5017666;28;20188;-82
2020/12/26 06:59:16;;;;;;;15.88;9.55;;;1.50;95.50;;;;;;5017901;28;20211;-82
2020/12/26 07:01:44;;;;;;;16.08;9.90;;;1.50;95.60;;;;;;5017250;28;20212;-82
2020/12/26 07:04:16;;;;;;;13.20;8.77;;;1.40;95.50;;;;;;5007899;28;20222;-81
2020/12/26 07:06:45;;;;;;;14.68;8.65;;;1.40;95.30;;;;;;5001127;28;20209;-80
2020/12/26 07:09:12;;;;;;;14.60;9.30;;;1.40;95.40;;;;;;5002766;28;20240;-81
2020/12/26 07:11:47;;;;;;;15.45;9.55;;;1.50;95.20;;;;;;5003453;28;20217;-82
2020/12/26 07:14:30;;;;;;;13.20;8.63;;;1.50;95.30;;;;;;5003625;28;20222;-82
2020/12/26 07:16:57;;;;;;;20.67;9.18;;;1.50;95.30;;;;;;5001976;28;20271;-81
2020/12/26 07:19:38;;;;;;;14.02;9.50;;;1.50;95.10;;;;;;5009346;28;20219;-82
2020/12/26 07:22:06;;;;;;;14.93;8.80;;;1.40;94.90;;;;;;5014564;28;20219;-81
2020/12/26 07:24:35;;;;;;;16.20;9.48;;;1.40;95.20;;;;;;5004066;28;20197;-81
2020/12/26 07:27:12;;;;;;;15.38;8.65;;;1.50;95.40;;;;;;5009535;28;20335;-82
2020/12/26 07:30:02;;;;;;;17.50;10.13;;;1.50;95.40;;;;;;5009089;28;20240;-82
2020/12/26 07:32:43;;;;;;;16.40;9.70;;;1.50;95.50;;;;;;5002936;28;20244;-81
2020/12/26 07:35:17;;;;;;;14.15;8.80;;;1.50;95.30;;;;;;5000688;28;20216;-82
2020/12/26 07:37:45;;;;;;;19.73;10.60;;;1.50;95.20;;;;;;5000452;28;20212;-82
2020/12/26 07:40:17;;;;;;;17.25;9.32;;;1.50;95.20;;;;;;5001712;28;20208;-82
2020/12/26 07:42:43;;;;;;;16.17;8.88;;;1.50;95.00;;;;;;5000847;28;20248;-82
2020/12/26 07:45:11;;;;;;;16.67;9.45;;;1.50;94.80;;;;;;5000679;28;20223;-81
2020/12/26 07:47:44;;;;;;;17.90;9.70;;;1.40;94.90;;;;;;5000763;28;20283;-81
2020/12/26 07:50:11;;;;;;;19.25;10.07;;;1.40;95.00;;;;;;4999822;28;20208;-82
2020/12/26 07:52:39;;;;;;;18.08;10.38;;;1.40;95.30;;;;;;5000141;28;20305;-82
2020/12/26 07:55:05;;;;;;;17.25;9.57;;;1.30;95.40;;;;;;4999793;28;20212;-81
2020/12/26 07:57:32;;;;;;;21.33;10.10;;;1.40;95.50;;;;;;4999144;28;20699;-82
2020/12/26 07:59:58;;;;;;;19.52;10.55;;;1.40;95.50;;;;;;5000756;28;20212;-81
2020/12/26 08:02:25;;;;;;;19.35;10.52;;;1.40;95.50;;;;;;5000282;28;20232;-81
2020/12/26 08:04:51;;;;;;;20.10;10.85;;;1.30;95.80;;;;;;5002308;28;20228;-81
2020/12/26 08:07:18;;;;;;;20.30;12.07;;;1.40;96.00;;;;;;5006879;28;20217;-82
2020/12/26 08:09:53;;;;;;;20.15;11.02;;;1.40;95.80;;;;;;5006948;28;20271;-82
2020/12/26 08:12:20;;;;;;;17.02;9.30;;;1.40;95.80;;;;;;5001285;28;20231;-82
2020/12/26 08:14:56;;;;;;;21.45;11.02;;;1.50;95.60;;;;;;5005354;28;20244;-82
2020/12/26 08:17:23;;;;;;;16.00;10.35;;;1.50;95.60;;;;;;5009849;28;20239;-82
2020/12/26 08:19:56;;;;;;;18.63;10.65;;;1.50;95.60;;;;;;5011745;28;20292;-82
2020/12/26 08:22:23;;;;;;;16.23;9.80;;;1.60;95.60;;;;;;5012470;28;20236;-82
2020/12/26 08:24:50;;;;;;;19.98;11.40;;;1.60;95.30;;;;;;5007958;28;20208;-82
2020/12/26 08:27:18;;;;;;;17.38;10.30;;;1.70;95.00;;;;;;5000661;28;20492;-82
2020/12/26 08:29:46;;;;;;;15.93;9.90;;;1.80;94.70;;;;;;5001310;28;20645;-82
2020/12/26 08:32:13;;;;;;;16.42;9.68;;;1.80;94.20;;;;;;5004713;28;20319;-81
2020/12/26 08:34:47;;;;;;;19.88;11.30;;;1.90;94.00;;;;;;5000686;28;20218;-81
2020/12/26 08:37:23;;;;;;;17.85;10.15;;;1.90;93.60;;;;;;4999970;28;20807;-80
2020/12/26 08:39:56;;;;;;;20.48;10.23;;;1.90;93.10;;;;;;5000537;28;20234;-81
2020/12/26 08:42:26;;;;;;;16.48;8.70;;;1.90;92.60;;;;;;5010637;28;20217;-82
2020/12/26 08:44:52;;;;;;;15.30;9.38;;;1.90;92.20;;;;;;5014217;28;20624;-82
2020/12/26 08:47:32;;;;;;;14.90;9.55;;;2.00;92.20;;;;;;5012147;28;20211;-82
2020/12/26 08:49:59;;;;;;;18.88;9.45;;;2.00;91.40;;;;;;5014239;28;20214;-81
2020/12/26 08:52:25;;;;;;;17.60;9.30;;;2.00;91.10;;;;;;5014521;28;20272;-81
2020/12/26 08:55:07;;;;;;;19.50;10.18;;;2.00;91.00;;;;;;5012890;28;20227;-82
2020/12/26 08:57:34;;;;;;;19.65;9.55;;;2.10;91.20;;;;;;5014986;28;20271;-82
2020/12/26 09:00:18;;;;;;;11.65;8.35;;;2.10;90.90;;;;;;5015504;28;20189;-81
2020/12/26 09:02:48;;;;;;;19.45;10.00;;;2.10;90.80;;;;;;5008000;28;20319;-82
2020/12/26 09:05:22;;;;;;;19.13;9.90;;;2.20;90.50;;;;;;5003719;28;20548;-80
2020/12/26 09:07:48;;;;;;;14.85;8.98;;;2.20;90.20;;;;;;5005469;28;20226;-82
2020/12/26 09:10:15;;;;;;;17.88;9.27;;;2.10;90.00;;;;;;5004944;28;20212;-83
2020/12/26 09:12:43;;;;;;;15.15;10.05;;;2.20;90.20;;;;;;5011656;28;20296;-81
2020/12/26 09:15:09;;;;;;;17.70;9.40;;;2.30;90.20;;;;;;5016682;28;20223;-81
2020/12/26 09:17:35;;;;;;;16.90;9.23;;;2.30;90.30;;;;;;5016047;28;20228;-82
2020/12/26 09:20:02;;;;;;;14.55;9.18;;;2.30;90.10;;;;;;5017373;28;20216;-82
2020/12/26 09:22:29;;;;;;;17.13;9.30;;;2.30;90.00;;;;;;5016648;28;20276;-82
2020/12/26 09:24:56;;;;;;;17.48;9.48;;;2.50;90.30;;;;;;5016709;28;20204;-83
2020/12/26 09:27:22;;;;;;;18.38;9.13;;;2.50;90.00;;;;;;5016065;28;20209;-83
2020/12/26 09:29:54;;;;;;;18.00;10.82;;;2.50;88.50;;;;;;5007501;28;20250;-83
2020/12/26 09:32:20;;;;;;;17.55;9.95;;;2.40;88.20;;;;;;5003165;28;20260;-82
2020/12/26 09:34:47;;;;;;;17.70;9.27;;;2.40;89.00;;;;;;5002873;28;20239;-82
2020/12/26 09:37:13;;;;;;;15.57;10.43;;;2.40;89.20;;;;;;5003203;28;20282;-83
2020/12/26 09:39:40;;;;;;;22.33;10.55;;;2.40;88.70;;;;;;5003118;28;20270;-81
2020/12/26 09:42:06;;;;;;;16.35;9.73;;;2.50;89.10;;;;;;5003104;28;20239;-83
2020/12/26 09:44:33;;;;;;;14.60;10.70;;;2.50;89.50;;;;;;5016010;28;20260;-83
2020/12/26 09:47:02;;;;;;;17.63;11.07;;;2.60;88.20;;;;;;5009578;28;20272;-83
2020/12/26 09:49:29;;;;;;;20.23;11.20;;;2.60;87.60;;;;;;5004217;28;20212;-83
2020/12/26 09:51:56;;;;;;;15.80;11.05;;;2.60;87.60;;;;;;5004218;28;20257;-82
2020/12/26 09:54:22;;;;;;;19.38;10.48;;;2.70;87.70;;;;;;5008093;28;20220;-83
2020/12/26 09:56:49;;;;;;;23.02;11.88;;;2.70;87.40;;;;;;5004229;28;20272;-82
2020/12/26 09:59:15;;;;;;;16.33;10.60;;;2.60;86.60;;;;;;5003899;28;20220;-81
2020/12/26 10:01:42;;;;;;;17.90;10.15;;;2.60;86.30;;;;;;5003918;28;20263;-84
2020/12/26 10:04:09;;;;;;;18.52;11.00;;;2.70;86.60;;;;;;5008246;28;20324;-86
2020/12/26 10:06:35;;;;;;;16.20;10.90;;;2.70;86.10;;;;;;5005778;28;20583;-82
2020/12/26 10:09:02;;;;;;;16.85;10.80;;;2.70;85.70;;;;;;5003898;28;20205;-84
2020/12/26 10:11:28;;;;;;;18.13;10.40;;;2.70;85.00;;;;;;5003730;28;20566;-84
2020/12/26 10:13:54;;;;;;;16.98;11.25;;;2.70;84.60;;;;;;5015940;28;20192;-83
2020/12/26 10:16:21;;;;;;;16.30;11.18;;;2.80;84.60;;;;;;5015679;28;20215;-84
2020/12/26 10:18:47;;;;;;;20.85;11.20;;;2.80;84.40;;;;;;5002871;28;20327;-81
2020/12/26 10:21:18;;;;;;;15.55;9.63;;;2.90;84.30;;;;;;5001857;28;20208;-82
2020/12/26 10:23:45;;;;;;;18.58;11.15;;;2.80;83.30;;;;;;5002217;28;20662;-83
2020/12/26 10:26:12;;;;;;;20.17;10.00;;;2.80;83.50;;;;;;5002195;28;20209;-83
2020/12/26 10:28:39;;;;;;;17.48;10.23;;;2.90;83.10;;;;;;5002274;28;20219;-83
2020/12/26 10:31:06;;;;;;;15.93;9.85;;;2.80;82.90;;;;;;5002138;28;20747;-83
2020/12/26 10:33:32;;;;;;;18.33;9.98;;;2.90;83.10;;;;;;5002573;28;20268;-83
2020/12/26 10:35:58;;;;;;;15.95;10.15;;;2.80;82.60;;;;;;5002908;28;20207;-84
2020/12/26 10:38:26;;;;;;;17.30;11.00;;;2.90;82.70;;;;;;5002745;28;20225;-84
2020/12/26 10:40:52;;;;;;;14.70;9.55;;;2.90;81.80;;;;;;5001877;28;20727;-84
2020/12/26 10:43:19;;;;;;;18.13;10.77;;;3.00;81.20;;;;;;5003235;28;20218;-84
2020/12/26 10:45:45;;;;;;;17.35;10.52;;;3.20;79.90;;;;;;5002691;28;20205;-83
2020/12/26 10:48:12;;;;;;;16.98;10.52;;;3.40;79.00;;;;;;5002848;28;20221;-84
2020/12/26 10:50:38;;;;;;;16.63;10.30;;;3.50;77.20;;;;;;5003708;28;20224;-83
2020/12/26 10:53:04;;;;;;;13.05;9.13;;;3.60;75.40;;;;;;5002712;28;20641;-84
2020/12/26 10:55:32;;;;;;;15.13;9.90;;;3.60;73.90;;;;;;5010614;28;20196;-84
2020/12/26 10:57:58;;;;;;;13.48;8.57;;;3.60;71.80;;;;;;5015306;28;20240;-83
2020/12/26 11:00:27;;;;;;;15.25;10.05;;;3.50;71.50;;;;;;5007025;28;20208;-84
2020/12/26 11:02:54;;;;;;;13.85;8.57;;;3.40;70.80;;;;;;5007458;28;20237;-84
2020/12/26 11:05:20;;;;;;;12.85;8.93;;;3.30;71.60;;;;;;5007233;28;20213;-83
2020/12/26 11:07:46;;;;;;;12.95;8.93;;;3.30;71.60;;;;;;5005201;28;20212;-83
2020/12/26 11:10:13;;;;;;;16.05;8.18;;;3.30;71.60;;;;;;5005361;28;20240;-83
2020/12/26 11:12:40;;;;;;;14.27;8.38;;;3.30;71.60;;;;;;5005228;28;20752;-82
2020/12/26 11:15:07;;;;;;;11.10;8.77;;;3.30;71.50;;;;;;5008537;28;20202;-84
2020/12/26 11:17:33;;;;;;;11.60;8.63;;;3.30;70.70;;;;;;5017569;28;20291;-83
2020/12/26 11:19:59;;;;;;;13.90;8.20;;;3.30;70.30;;;;;;5017959;28;20217;-84
2020/12/26 11:22:26;;;;;;;11.30;8.75;;;3.30;70.20;;;;;;5017529;28;20212;-83
2020/12/26 11:24:52;;;;;;;15.52;8.73;;;3.30;70.00;;;;;;5011307;28;20216;-83
2020/12/26 11:27:19;;;;;;;11.82;8.65;;;3.30;69.80;;;;;;5005452;28;20232;-83
2020/12/26 11:29:46;;;;;;;13.20;9.20;;;3.20;70.00;;;;;;5004379;28;20206;-83
2020/12/26 11:32:12;;;;;;;14.45;9.93;;;3.30;70.20;;;;;;5003007;28;20232;-82
2020/12/26 11:34:39;;;;;;;12.63;9.18;;;3.40;70.40;;;;;;5003760;28;20201;-82
2020/12/26 11:37:05;;;;;;;17.60;10.38;;;3.50;70.00;;;;;;5003857;28;20215;-82
2020/12/26 11:39:32;;;;;;;12.50;9.60;;;3.60;69.30;;;;;;5013979;28;20193;-83
2020/12/26 11:41:58;;;;;;;14.40;9.90;;;3.60;69.40;;;;;;5017741;28;20288;-84
2020/12/26 11:44:25;;;;;;;15.05;9.10;;;3.70;68.90;;;;;;5017629;28;20240;-84
2020/12/26 11:46:53;;;;;;;12.00;8.90;;;3.80;67.70;;;;;;5012688;28;20219;-83
2020/12/26 11:49:22;;;;;;;13.05;9.18;;;3.70;67.60;;;;;;5003805;28;20209;-84
2020/12/26 11:51:51;;;;;;;14.48;9.57;;;3.90;67.70;;;;;;5008512;28;20224;-82
2020/12/26 11:54:17;;;;;;;17.30;9.75;;;3.90;66.80;;;;;;5016610;28;20212;-82
2020/12/26 11:56:43;;;;;;;11.43;8.20;;;4.00;66.30;;;;;;5015161;28;20224;-83
2020/12/26 11:59:10;;;;;;;14.32;9.60;;;4.00;66.30;;;;;;5009909;28;20661;-84
2020/12/26 12:01:36;;;;;;;13.50;9.30;;;3.90;65.70;;;;;;5010328;28;20217;-85
2020/12/26 12:04:03;;;;;;;14.57;9.23;;;3.80;65.50;;;;;;5015177;28;20253;-85
2020/12/26 12:06:30;;;;;;;16.38;11.07;;;3.80;65.80;;;;;;5014547;28;20213;-84
2020/12/26 12:08:58;;;;;;;13.15;10.10;;;3.70;66.10;;;;;;5014960;28;20228;-84
2020/12/26 12:11:24;;;;;;;20.90;11.73;;;3.70;66.10;;;;;;5005492;28;20680;-83
2020/12/26 12:13:50;;;;;;;15.07;10.73;;;3.80;67.00;;;;;;4998061;28;20205;-84
2020/12/26 12:16:17;;;;;;;16.02;10.27;;;3.80;66.20;;;;;;5004373;28;20203;-84
2020/12/26 12:18:43;;;;;;;13.75;9.18;;;3.80;66.30;;;;;;5005317;28;20289;-84
2020/12/26 12:21:14;;;;;;;13.27;9.45;;;3.90;66.20;;;;;;5003173;28;20210;-83
2020/12/26 12:23:40;;;;;;;10.27;7.85;;;4.00;65.30;;;;;;5002010;28;20230;-83
2020/12/26 12:26:07;;;;;;;11.40;9.05;;;4.10;64.30;;;;;;5002851;28;20221;-83
2020/12/26 12:28:33;;;;;;;14.00;9.18;;;4.10;63.60;;;;;;5002799;28;20205;-83
2020/12/26 12:30:59;;;;;;;14.85;9.43;;;4.00;63.50;;;;;;5005381;28;20204;-83
2020/12/26 12:33:26;;;;;;;13.18;8.88;;;4.20;63.60;;;;;;5003725;28;20236;-84
2020/12/26 12:35:52;;;;;;;11.88;8.20;;;4.20;63.60;;;;;;5002770;28;20220;-83
2020/12/26 12:38:19;;;;;;;12.27;8.60;;;4.40;62.90;;;;;;5012152;28;20272;-84
2020/12/26 12:40:46;;;;;;;12.13;8.60;;;4.50;61.90;;;;;;5016873;28;20230;-85
2020/12/26 12:43:12;;;;;;;11.23;7.93;;;4.50;61.50;;;;;;5015935;28;20459;-85
2020/12/26 12:45:39;;;;;;;15.85;7.95;;;4.40;61.30;;;;;;5016506;28;20197;-83